Time;durP1;ratioP1;P1;durP2;ratioP2;P2;SDS_P1;SDS_P2;PMS_P1;PMS_P2;Temp;Humidity;BMP_temperature;BMP_pressure;BME280_temperature;BME280_humidity;BME280_pressure;Samples;Min_cycle;Max_cycle;Signal;HPM_P1;HPM_P2
2021/03/29 00:01:34;;;;;;;9.90;5.70;;;;;;;10.16;70.44;102461.97;5079532;28;20047;-64
2021/03/29 00:04:01;;;;;;;9.48;6.38;;;;;;;10.18;70.56;102462.97;5080742;28;20500;-64
2021/03/29 00:06:30;;;;;;;10.77;6.22;;;;;;;10.22;70.44;102462.28;5077108;28;20041;-65
2021/03/29 00:08:58;;;;;;;10.50;6.50;;;;;;;10.19;70.71;102467.41;5083568;28;20115;-64
2021/03/29 00:11:26;;;;;;;11.15;5.43;;;;;;;10.18;70.58;102457.69;5076665;28;20044;-65
2021/03/29 00:13:55;;;;;;;7.60;5.00;;;;;;;10.20;71.22;102460.41;5090246;28;20043;-64
2021/03/29 00:16:24;;;;;;;9.45;5.72;;;;;;;10.26;71.10;102456.28;5092400;28;20028;-65
2021/03/29 00:18:51;;;;;;;10.98;5.30;;;;;;;10.28;71.38;102459.00;5089919;28;20032;-64
2021/03/29 00:21:19;;;;;;;9.65;5.50;;;;;;;10.27;71.18;102455.47;5090144;28;20036;-65
2021/03/29 00:23:47;;;;;;;8.82;5.13;;;;;;;10.24;70.99;102457.94;5091508;28;20081;-65
2021/03/29 00:26:15;;;;;;;10.52;5.32;;;;;;;10.22;70.99;102451.72;5091605;28;20032;-65
2021/03/29 00:28:42;;;;;;;9.23;5.97;;;;;;;10.23;71.19;102448.25;5086938;28;20405;-65
2021/03/29 00:31:11;;;;;;;12.30;6.63;;;;;;;10.28;71.04;102444.06;5092081;28;20497;-64
2021/03/29 00:33:39;;;;;;;9.77;5.78;;;;;;;10.31;70.92;102446.81;5089854;28;20514;-65
2021/03/29 00:36:08;;;;;;;10.48;5.70;;;;;;;10.30;71.10;102445.06;5091692;28;20036;-64
2021/03/29 00:38:38;;;;;;;9.68;5.70;;;;;;;10.28;71.29;102446.72;5073934;28;20040;-65
2021/03/29 00:41:10;;;;;;;11.60;5.93;;;;;;;10.32;71.35;102445.09;5073896;28;20044;-65
2021/03/29 00:43:40;;;;;;;12.80;7.30;;;;;;;10.35;71.68;102442.59;5073735;28;20123;-65
2021/03/29 00:46:09;;;;;;;12.65;6.47;;;;;;;10.36;71.62;102437.41;5073706;28;20036;-64
2021/03/29 00:48:38;;;;;;;9.98;6.03;;;;;;;10.38;71.67;102440.06;5070940;28;20048;-65
2021/03/29 00:51:11;;;;;;;13.73;6.68;;;;;;;10.41;71.84;102444.59;5072623;28;20229;-64
2021/03/29 00:53:41;;;;;;;10.48;6.18;;;;;;;10.37;71.79;102435.66;5085237;28;20032;-65
2021/03/29 00:56:10;;;;;;;9.57;6.03;;;;;;;10.38;71.84;102442.72;5088240;28;20036;-64
2021/03/29 00:58:38;;;;;;;9.50;5.85;;;;;;;10.36;71.67;102445.31;5091300;28;20564;-65
2021/03/29 01:01:08;;;;;;;10.00;5.53;;;;;;;10.34;71.50;102444.34;5091724;28;20055;-64
2021/03/29 01:03:38;;;;;;;8.77;5.55;;;;;;;10.29;71.43;102440.59;5090412;28;20119;-65
2021/03/29 01:06:07;;;;;;;9.98;5.53;;;;;;;10.24;71.36;102444.75;5083236;28;20048;-65
2021/03/29 01:08:36;;;;;;;11.15;6.50;;;;;;;10.21;71.06;102444.63;5072961;28;20043;-64
2021/03/29 01:11:06;;;;;;;10.98;5.85;;;;;;;10.17;71.31;102433.88;5090901;28;20556;-64
2021/03/29 01:13:39;;;;;;;9.65;5.93;;;;;;;10.10;71.48;102437.94;5088089;28;20390;-65
2021/03/29 01:16:08;;;;;;;10.88;5.65;;;;;;;10.02;71.59;102434.06;5091340;28;20040;-65
2021/03/29 01:18:36;;;;;;;10.88;5.97;;;;;;;9.99;71.50;102437.44;5079034;28;20037;-65
2021/03/29 01:21:16;;;;;;;11.20;6.00;;;;;;;9.94;71.57;102427.53;5070988;28;20056;-65
2021/03/29 01:23:44;;;;;;;11.32;7.60;;;;;;;9.92;71.93;102431.84;5078683;28;20493;-64
2021/03/29 01:26:17;;;;;;;10.15;6.53;;;;;;;9.94;71.59;102430.19;5088679;28;20064;-64
2021/03/29 01:28:48;;;;;;;10.00;6.43;;;;;;;9.90;71.78;102415.06;5070470;28;20051;-65
2021/03/29 01:31:16;;;;;;;9.95;6.00;;;;;;;9.85;71.97;102416.56;5070710;28;20093;-65
2021/03/29 01:33:45;;;;;;;11.60;6.13;;;;;;;9.84;71.76;102420.06;5082754;28;20127;-65
2021/03/29 01:36:13;;;;;;;10.10;6.88;;;;;;;9.85;72.00;102413.91;5075943;28;20144;-65
2021/03/29 01:38:41;;;;;;;15.57;8.77;;;;;;;9.87;72.15;102409.63;5075320;28;20562;-65
2021/03/29 01:41:09;;;;;;;12.25;6.95;;;;;;;9.88;72.09;102409.69;5069364;28;20029;-65
2021/03/29 01:43:37;;;;;;;16.90;9.55;;;;;;;9.89;71.79;102407.97;5070065;28;20090;-65
2021/03/29 01:46:07;;;;;;;13.52;8.02;;;;;;;9.89;71.67;102410.59;5070606;28;20047;-65
2021/03/29 01:48:34;;;;;;;13.02;7.45;;;;;;;9.88;71.96;102411.44;5081896;28;20046;-66
2021/03/29 01:51:02;;;;;;;10.77;6.75;;;;;;;9.83;71.87;102412.97;5090661;28;20552;-65
2021/03/29 01:53:33;;;;;;;11.13;6.35;;;;;;;9.82;72.13;102406.78;5090213;28;20040;-65
2021/03/29 01:56:00;;;;;;;10.20;6.38;;;;;;;9.79;72.17;102405.72;5089378;28;20036;-65
2021/03/29 01:58:27;;;;;;;11.18;6.22;;;;;;;9.75;72.31;102407.34;5090484;28;20114;-65
2021/03/29 02:00:58;;;;;;;11.38;5.82;;;;;;;9.74;72.32;102409.91;5086073;28;20040;-65
2021/03/29 02:03:27;;;;;;;11.68;6.63;;;;;;;9.73;72.48;102408.09;5090431;28;20119;-65
2021/03/29 02:05:55;;;;;;;12.57;7.07;;;;;;;9.74;72.71;102412.53;5085796;28;20066;-65
2021/03/29 02:08:24;;;;;;;10.35;6.57;;;;;;;9.72;72.92;102412.47;5090443;28;20119;-65
2021/03/29 02:10:52;;;;;;;13.48;7.93;;;;;;;9.71;72.96;102421.25;5090110;28;20255;-65
2021/03/29 02:13:22;;;;;;;13.88;8.68;;;;;;;9.69;72.82;102414.06;5086075;28;20040;-65
2021/03/29 02:15:52;;;;;;;20.25;14.95;;;;;;;9.67;72.89;102411.38;5078704;28;20123;-65
2021/03/29 02:18:22;;;;;;;17.55;11.48;;;;;;;9.63;73.29;102412.06;5070151;28;20326;-65
2021/03/29 02:20:51;;;;;;;14.10;8.95;;;;;;;9.59;73.20;102404.81;5068545;28;20040;-65
2021/03/29 02:23:19;;;;;;;13.57;9.27;;;;;;;9.57;73.35;102403.88;5070224;28;20043;-65
2021/03/29 02:25:49;;;;;;;15.45;10.60;;;;;;;9.54;73.22;102415.16;5075412;28;20132;-65
2021/03/29 02:28:16;;;;;;;16.98;10.77;;;;;;;9.51;73.55;102409.78;5089677;28;20111;-65
2021/03/29 02:30:45;;;;;;;15.02;9.73;;;;;;;9.51;73.32;102407.16;5089605;28;20736;-65
2021/03/29 02:33:15;;;;;;;16.13;10.32;;;;;;;9.51;73.35;102407.16;5088885;28;20032;-65
2021/03/29 02:35:43;;;;;;;16.58;9.65;;;;;;;9.51;73.33;102393.97;5089919;28;20051;-64
2021/03/29 02:38:14;;;;;;;14.57;10.23;;;;;;;9.53;73.48;102397.53;5090071;28;20085;-65
2021/03/29 02:40:42;;;;;;;11.60;7.93;;;;;;;9.57;73.67;102393.34;5087895;28;20036;-65
2021/03/29 02:43:10;;;;;;;13.35;9.20;;;;;;;9.65;73.86;102393.69;5074767;28;20039;-65
2021/03/29 02:45:42;;;;;;;14.98;8.05;;;;;;;9.72;73.96;102401.00;5069292;28;20124;-65
2021/03/29 02:48:11;;;;;;;13.07;8.27;;;;;;;9.81;74.17;102399.72;5069679;28;20044;-65
2021/03/29 02:50:41;;;;;;;11.20;7.03;;;;;;;9.93;74.24;102399.34;5069462;28;20037;-65
2021/03/29 02:53:10;;;;;;;14.35;9.02;;;;;;;10.03;74.37;102398.03;5070021;28;20412;-65
2021/03/29 02:55:39;;;;;;;13.18;8.02;;;;;;;10.12;74.39;102394.03;5077315;28;20676;-65
2021/03/29 02:58:08;;;;;;;12.40;8.43;;;;;;;10.18;74.24;102396.06;5071645;28;20041;-65
2021/03/29 03:00:36;;;;;;;11.18;6.97;;;;;;;10.22;74.32;102398.03;5069257;28;20401;-65
2021/03/29 03:03:05;;;;;;;11.55;6.70;;;;;;;10.24;74.92;102401.66;5069749;28;20132;-65
2021/03/29 03:05:35;;;;;;;10.20;6.80;;;;;;;10.27;74.65;102397.38;5069060;28;20037;-65
2021/03/29 03:08:03;;;;;;;14.32;8.80;;;;;;;10.30;74.98;102400.19;5069674;28;20497;-65
2021/03/29 03:10:31;;;;;;;16.13;9.30;;;;;;;10.29;75.06;102400.09;5071654;28;20594;-65
2021/03/29 03:13:01;;;;;;;15.98;8.30;;;;;;;10.22;74.92;102395.38;5069706;28;20497;-65
2021/03/29 03:15:29;;;;;;;13.88;8.10;;;;;;;10.16;75.35;102403.91;5074578;28;20042;-66
2021/03/29 03:17:59;;;;;;;12.32;7.57;;;;;;;10.10;75.49;102408.03;5079431;28;20099;-65
2021/03/29 03:20:27;;;;;;;13.35;7.47;;;;;;;10.06;75.15;102392.88;5093522;28;20101;-65
2021/03/29 03:22:56;;;;;;;12.82;7.43;;;;;;;9.99;75.35;102402.25;5093108;28;20036;-65
2021/03/29 03:25:26;;;;;;;13.10;7.10;;;;;;;9.91;75.03;102407.19;5092805;28;20041;-65
2021/03/29 03:27:54;;;;;;;10.25;6.65;;;;;;;9.83;75.28;102403.31;5092994;28;20032;-65
2021/03/29 03:30:25;;;;;;;13.55;8.02;;;;;;;9.84;75.23;102396.31;5093436;28;20046;-65
2021/03/29 03:32:53;;;;;;;16.92;10.70;;;;;;;9.87;74.63;102405.25;5090943;28;20436;-65
2021/03/29 03:35:21;;;;;;;21.13;14.52;;;;;;;9.91;74.47;102399.28;5093394;28;20044;-65
2021/03/29 03:37:51;;;;;;;20.58;14.52;;;;;;;9.92;74.62;102405.44;5092899;28;20074;-65
2021/03/29 03:40:21;;;;;;;20.02;11.77;;;;;;;9.87;74.58;102410.53;5093149;28;20412;-65
2021/03/29 03:42:50;;;;;;;13.82;9.07;;;;;;;9.77;74.64;102413.59;5092632;28;20093;-65
2021/03/29 03:45:21;;;;;;;14.30;7.43;;;;;;;9.74;74.83;102412.53;5092949;28;20051;-65
2021/03/29 03:47:50;;;;;;;14.00;7.53;;;;;;;9.76;74.77;102409.16;5080910;28;20126;-65
2021/03/29 03:50:18;;;;;;;11.88;7.00;;;;;;;9.78;74.74;102414.50;5087918;28;20036;-65
2021/03/29 03:52:47;;;;;;;12.65;8.05;;;;;;;9.73;74.90;102406.38;5092246;28;20051;-65
2021/03/29 03:55:16;;;;;;;11.55;6.90;;;;;;;9.72;74.94;102398.38;5093122;28;20047;-65
2021/03/29 03:57:44;;;;;;;12.98;7.18;;;;;;;9.68;75.06;102404.34;5092415;28;20038;-65
2021/03/29 04:00:15;;;;;;;12.57;6.85;;;;;;;9.70;75.02;102407.97;5091149;28;20050;-65
2021/03/29 04:02:44;;;;;;;14.55;7.22;;;;;;;9.65;75.21;102406.88;5083577;28;20120;-65
2021/03/29 04:05:14;;;;;;;13.85;6.53;;;;;;;9.60;75.17;102410.19;5086015;28;20040;-65
2021/03/29 04:07:41;;;;;;;9.77;6.30;;;;;;;9.54;74.93;102402.00;5092043;28;20048;-65
2021/03/29 04:10:14;;;;;;;11.50;7.00;;;;;;;9.52;74.88;102411.56;5090684;28;20086;-65
2021/03/29 04:12:43;;;;;;;11.48;6.68;;;;;;;9.51;74.91;102401.88;5090518;28;20151;-65
2021/03/29 04:15:11;;;;;;;10.35;7.00;;;;;;;9.60;74.81;102404.91;5091191;28;20040;-65
2021/03/29 04:17:38;;;;;;;13.48;7.53;;;;;;;9.68;74.86;102404.34;5084135;28;20036;-65
2021/03/29 04:20:07;;;;;;;12.32;6.95;;;;;;;9.72;74.74;102401.00;5090602;28;20043;-65
2021/03/29 04:22:36;;;;;;;9.95;6.32;;;;;;;9.76;75.00;102408.25;5071896;28;20048;-66
2021/03/29 04:25:05;;;;;;;12.30;6.82;;;;;;;9.82;75.19;102404.16;5075689;28;20111;-65
2021/03/29 04:27:32;;;;;;;11.52;7.10;;;;;;;9.92;75.09;102409.00;5086683;28;20051;-65
2021/03/29 04:30:00;;;;;;;12.43;6.93;;;;;;;10.08;75.13;102405.31;5071187;28;20040;-65
2021/03/29 04:32:27;;;;;;;10.85;6.60;;;;;;;10.26;75.65;102407.88;5073006;28;20037;-65
2021/03/29 04:34:54;;;;;;;12.00;6.97;;;;;;;10.41;75.49;102397.97;5075513;28;20079;-65
2021/03/29 04:37:21;;;;;;;15.23;7.97;;;;;;;10.55;75.71;102399.47;5091469;28;20136;-65
2021/03/29 04:39:49;;;;;;;14.43;7.63;;;;;;;10.71;75.76;102406.28;5089755;28;23111;-65
2021/03/29 04:42:16;;;;;;;14.90;8.43;;;;;;;10.81;75.81;102399.63;5091904;28;20108;-65
2021/03/29 04:44:43;;;;;;;10.20;6.10;;;;;;;10.78;76.02;102400.41;5090380;28;20411;-65
2021/03/29 04:47:10;;;;;;;11.70;6.53;;;;;;;10.71;76.14;102406.28;5089419;28;20035;-65
2021/03/29 04:49:37;;;;;;;12.60;6.72;;;;;;;10.70;76.12;102409.75;5089369;28;20036;-65
2021/03/29 04:52:05;;;;;;;15.10;7.10;;;;;;;10.80;75.47;102414.59;5081048;28;20078;-65
2021/03/29 04:54:32;;;;;;;12.70;7.40;;;;;;;10.95;75.20;102412.59;5091258;28;20029;-65
2021/03/29 04:57:00;;;;;;;20.45;6.88;;;;;;;11.18;75.27;102411.75;5071880;28;20044;-65
2021/03/29 04:59:27;;;;;;;9.75;5.65;;;;;;;11.31;75.21;102409.56;5073981;28;20033;-65
2021/03/29 05:01:54;;;;;;;9.07;5.78;;;;;;;11.31;74.85;102409.56;5070835;28;20066;-65
2021/03/29 05:04:21;;;;;;;10.20;6.63;;;;;;;11.22;74.48;102415.44;5071429;28;20043;-65
2021/03/29 05:06:48;;;;;;;9.10;5.60;;;;;;;11.16;74.80;102408.13;5070622;28;20096;-65
2021/03/29 05:09:15;;;;;;;11.52;6.35;;;;;;;11.09;74.76;102413.13;5071858;28;20115;-65
2021/03/29 05:11:50;;;;;;;13.05;6.20;;;;;;;11.06;74.96;102413.91;5090001;28;20036;-65
2021/03/29 05:14:19;;;;;;;;;;;;;;;11.06;74.85;102416.53;5091393;28;20072;-65
2021/03/29 05:16:47;;;;;;;14.80;6.90;;;;;;;11.09;74.72;102408.72;5090560;28;20019;-65
2021/03/29 05:19:14;;;;;;;10.38;6.60;;;;;;;11.21;74.48;102418.00;5091310;28;20036;-65
2021/03/29 05:21:41;;;;;;;10.35;6.72;;;;;;;11.37;74.32;102415.09;5090813;28;20036;-65
2021/03/29 05:24:09;;;;;;;13.90;6.78;;;;;;;11.54;74.68;102414.94;5078172;28;20041;-65
2021/03/29 05:26:36;;;;;;;10.38;5.50;;;;;;;11.65;75.19;102409.13;5089211;28;20044;-65
2021/03/29 05:29:04;;;;;;;10.45;6.90;;;;;;;11.64;75.34;102416.16;5089326;28;20123;-65
2021/03/29 05:31:39;;;;;;;8.88;5.72;;;;;;;11.82;75.40;102408.94;5087763;28;20084;-65
2021/03/29 05:34:06;;;;;;;9.68;5.10;;;;;;;12.07;75.55;102415.16;5080553;28;20047;-65
2021/03/29 05:36:33;;;;;;;9.05;5.68;;;;;;;12.08;75.50;102407.25;5072757;28;20040;-65
2021/03/29 05:39:00;;;;;;;10.32;6.55;;;;;;;12.03;75.72;102414.13;5088037;28;20492;-65
2021/03/29 05:41:27;;;;;;;10.93;5.85;;;;;;;12.00;75.20;102414.03;5077023;28;20492;-65
2021/03/29 05:43:55;;;;;;;10.32;7.15;;;;;;;12.10;74.88;102410.84;5088604;28;20066;-65
2021/03/29 05:46:22;;;;;;;10.48;6.00;;;;;;;12.62;74.47;102408.25;5086565;28;20587;-65
2021/03/29 05:48:51;;;;;;;10.57;5.78;;;;;;;13.30;74.83;102406.06;5080832;28;20044;-64
2021/03/29 05:51:18;;;;;;;9.38;5.50;;;;;;;13.59;74.87;102407.84;5090516;28;20044;-65
2021/03/29 05:53:45;;;;;;;9.02;5.15;;;;;;;13.56;74.63;102400.72;5079768;28;20090;-66
2021/03/29 05:56:13;;;;;;;10.60;5.40;;;;;;;13.49;74.33;102397.81;5069363;28;20033;-65
2021/03/29 05:58:43;;;;;;;14.43;7.57;;;;;;;13.53;73.93;102403.25;5069534;28;20037;-65
2021/03/29 06:01:11;;;;;;;17.58;9.02;;;;;;;14.04;73.71;102400.31;5075681;28;20043;-66
2021/03/29 06:03:40;;;;;;;27.77;15.35;;;;;;;14.36;73.43;102399.44;5080273;28;20036;-65
2021/03/29 06:06:20;;;;;;;45.67;25.10;;;;;;;14.56;73.32;102399.09;5070515;28;20033;-65
2021/03/29 06:08:49;;;;;;;51.15;29.58;;;;;;;14.51;73.00;102403.34;5069861;28;20051;-66
2021/03/29 06:11:25;;;;;;;34.22;17.92;;;;;;;14.65;72.95;102409.94;5070261;28;20046;-65
2021/03/29 06:14:12;;;;;;;38.13;21.08;;;;;;;14.62;72.76;102405.47;5074873;28;20082;-65
2021/03/29 06:16:57;;;;;;;45.30;23.35;;;;;;;14.57;72.66;102412.38;5076595;28;20488;-65
2021/03/29 06:19:49;;;;;;;61.58;31.75;;;;;;;14.34;72.76;102405.56;5084687;28;20515;-66
2021/03/29 06:22:20;;;;;;;47.25;26.95;;;;;;;14.47;72.95;102402.41;5050304;28;20048;-66
2021/03/29 06:25:09;;;;;;;47.08;26.80;;;;;;;15.15;72.61;102401.44;5084748;28;20131;-66
2021/03/29 06:27:44;;;;;;;40.17;24.30;;;;;;;15.40;71.68;102399.34;5089768;28;20043;-66
2021/03/29 06:30:21;;;;;;;41.53;25.95;;;;;;;15.45;70.99;102397.66;5090355;28;20028;-66
2021/03/29 06:33:03;;;;;;;32.58;19.92;;;;;;;15.72;70.68;102400.06;5072115;28;20051;-66
2021/03/29 06:35:33;;;;;;;22.55;14.32;;;;;;;15.71;70.48;102399.16;5088279;28;20564;-67
2021/03/29 06:38:27;;;;;;;17.58;9.73;;;;;;;16.08;69.12;102395.44;5089049;28;20660;-66
2021/03/29 06:40:58;;;;;;;13.95;8.48;;;;;;;16.38;68.70;102399.56;5085147;28;20559;-66
2021/03/29 06:43:27;;;;;;;23.27;13.80;;;;;;;16.91;67.80;102392.50;5087632;28;20119;-66
2021/03/29 06:45:56;;;;;;;19.65;11.02;;;;;;;16.82;67.00;102389.69;5076112;28;20787;-66
2021/03/29 06:48:26;;;;;;;12.32;7.40;;;;;;;16.73;65.85;102401.13;5076872;28;20054;-66
2021/03/29 06:51:07;;;;;;;13.38;8.85;;;;;;;16.50;64.88;102397.13;5073501;28;20044;-65
2021/03/29 06:53:36;;;;;;;15.20;9.55;;;;;;;16.67;64.74;102393.88;5073320;28;20132;-66
2021/03/29 06:56:27;;;;;;;14.35;8.68;;;;;;;16.95;63.88;102399.69;5073023;28;20060;-65
2021/03/29 06:58:56;;;;;;;10.55;6.13;;;;;;;16.72;63.90;102392.22;5074314;28;20064;-66
2021/03/29 07:01:25;;;;;;;10.27;6.25;;;;;;;16.35;63.91;102393.31;5073459;28;20051;-65
2021/03/29 07:03:54;;;;;;;9.00;6.07;;;;;;;16.05;63.91;102389.19;5071678;28;20498;-66
2021/03/29 07:06:25;;;;;;;9.32;6.20;;;;;;;16.06;63.88;102389.22;5081015;28;20212;-65
2021/03/29 07:09:01;;;;;;;12.82;5.68;;;;;;;16.98;62.31;102381.97;5092236;28;20068;-66
2021/03/29 07:11:29;;;;;;;46.92;26.70;;;;;;;17.35;60.84;102395.84;5091780;28;20036;-65
2021/03/29 07:13:57;;;;;;;33.92;18.90;;;;;;;17.23;60.81;102396.56;5089726;28;20040;-66
2021/03/29 07:16:26;;;;;;;30.58;16.33;;;;;;;16.96;60.47;102394.38;5078804;28;20115;-65
2021/03/29 07:18:57;;;;;;;17.08;9.73;;;;;;;16.79;60.49;102395.00;5091963;28;20035;-66
2021/03/29 07:21:24;;;;;;;11.32;6.78;;;;;;;16.71;60.93;102401.09;5072993;28;20043;-66
2021/03/29 07:23:53;;;;;;;10.73;5.50;;;;;;;17.07;60.08;102386.53;5083091;28;20113;-66
2021/03/29 07:26:36;;;;;;;10.05;5.65;;;;;;;17.65;58.96;102396.31;5078668;28;20035;-66
2021/03/29 07:29:23;;;;;;;9.57;6.05;;;;;;;17.84;58.44;102397.41;5081053;28;20270;-66
2021/03/29 07:31:53;;;;;;;26.77;14.38;;;;;;;18.12;58.29;102398.59;5098900;28;20044;-66
2021/03/29 07:34:43;;;;;;;17.13;10.80;;;;;;;18.02;58.24;102400.31;5102938;27;20127;-66
2021/03/29 07:37:27;;;;;;;19.05;10.85;;;;;;;18.13;57.99;102395.97;5092692;28;20404;-65
2021/03/29 07:39:56;;;;;;;13.60;8.52;;;;;;;17.92;58.09;102398.38;5082305;28;20090;-66
2021/03/29 07:42:41;;;;;;;10.45;6.32;;;;;;;18.13;57.91;102397.72;5081772;28;20392;-66
2021/03/29 07:45:12;;;;;;;10.25;5.57;;;;;;;18.35;57.21;102396.19;5077330;28;20043;-66
2021/03/29 07:47:41;;;;;;;8.45;5.03;;;;;;;18.70;56.78;102392.09;5072201;28;20050;-67
2021/03/29 07:50:10;;;;;;;9.18;5.57;;;;;;;18.58;55.78;102384.84;5080173;28;20119;-66
2021/03/29 07:52:42;;;;;;;9.73;6.15;;;;;;;18.24;56.29;102394.31;5092280;28;20055;-67
2021/03/29 07:55:22;;;;;;;8.45;5.20;;;;;;;18.37;56.23;102387.31;5092012;28;20040;-66
2021/03/29 07:58:09;;;;;;;6.65;4.05;;;;;;;18.73;55.45;102385.88;5092331;28;20036;-66
2021/03/29 08:00:48;;;;;;;7.65;4.20;;;;;;;18.96;55.28;102384.28;5077441;28;20050;-67
2021/03/29 08:03:45;;;;;;;7.78;4.32;;;;;;;19.27;55.10;102388.03;5085889;28;20036;-66
2021/03/29 08:06:38;;;;;;;8.90;4.90;;;;;;;19.16;54.67;102389.78;5090850;28;20058;-66
2021/03/29 08:09:06;;;;;;;6.40;4.53;;;;;;;19.02;55.29;102389.66;5083307;28;20400;-66
2021/03/29 08:11:58;;;;;;;7.82;4.15;;;;;;;19.27;54.13;102390.72;5071731;28;20037;-66
2021/03/29 08:14:37;;;;;;;7.65;5.00;;;;;;;19.56;53.57;102385.56;5071334;28;20493;-66
2021/03/29 08:17:48;;;;;;;7.80;4.90;;;;;;;19.42;52.61;102385.47;5073017;28;20123;-66
2021/03/29 08:20:21;;;;;;;6.75;4.38;;;;;;;19.56;51.90;102389.09;5079533;28;20040;-66
2021/03/29 08:23:32;;;;;;;9.27;4.97;;;;;;;19.38;51.93;102391.66;5079245;28;20096;-66
2021/03/29 08:26:14;;;;;;;9.05;5.20;;;;;;;19.57;50.90;102390.91;4989918;28;20506;-66
2021/03/29 08:29:29;;;;;;;8.23;5.60;;;;;;;19.65;51.25;102383.81;5082752;28;20059;-66
2021/03/29 08:32:18;;;;;;;7.93;4.63;;;;;;;19.93;50.71;102395.53;5089726;28;20070;-67
2021/03/29 08:34:52;;;;;;;7.72;5.20;;;;;;;19.59;50.94;102399.84;5077799;28;20120;-67
2021/03/29 08:37:21;;;;;;;;;;;;;;;19.55;51.31;102406.09;5075431;28;20063;-66
2021/03/29 08:39:49;;;;;;;5.45;4.18;;;;;;;19.94;50.68;102401.78;5091114;28;19967;-66
2021/03/29 08:42:17;;;;;;;10.10;5.10;;;;;;;20.41;49.59;102396.59;5091762;28;20050;-66
2021/03/29 08:44:46;;;;;;;6.55;4.18;;;;;;;20.92;48.89;102395.69;5091039;28;20036;-67
2021/03/29 08:47:17;;;;;;;7.03;3.97;;;;;;;21.29;48.05;102400.13;5086389;28;20531;-67
2021/03/29 08:49:46;;;;;;;11.23;3.90;;;;;;;21.55;47.59;102393.78;5089421;28;20119;-67
2021/03/29 08:52:14;;;;;;;10.80;5.93;;;;;;;21.63;47.27;102392.88;5091741;28;20386;-67
2021/03/29 08:54:49;;;;;;;15.48;9.07;;;;;;;21.93;46.67;102402.56;5091493;28;20036;-67
2021/03/29 08:57:17;;;;;;;10.27;5.18;;;;;;;22.10;46.53;102397.16;5086191;28;20048;-67
2021/03/29 08:59:44;;;;;;;5.95;3.80;;;;;;;22.06;46.36;102392.69;5082822;28;20040;-67
2021/03/29 09:02:15;;;;;;;6.35;3.83;;;;;;;21.87;45.80;102392.75;5091521;28;20093;-67
2021/03/29 09:04:51;;;;;;;6.82;4.28;;;;;;;21.52;46.28;102394.72;5091091;28;20036;-67
2021/03/29 09:07:18;;;;;;;6.47;4.13;;;;;;;20.90;45.91;102394.78;5090997;28;20120;-67
2021/03/29 09:09:46;;;;;;;7.72;4.43;;;;;;;20.99;45.51;102387.63;5090824;28;20430;-67
2021/03/29 09:12:24;;;;;;;6.32;3.92;;;;;;;21.46;45.05;102392.03;5082080;28;20713;-67
2021/03/29 09:14:52;;;;;;;8.20;4.78;;;;;;;21.66;43.96;102391.97;5069665;28;20045;-67
2021/03/29 09:17:27;;;;;;;6.47;4.32;;;;;;;21.94;43.17;102390.91;5070742;28;20672;-67
2021/03/29 09:19:55;;;;;;;8.98;5.93;;;;;;;;;;5070571;28;20533;-67
2021/03/29 09:22:30;;;;;;;6.57;4.50;;;;;;;22.40;43.68;102375.41;5071355;28;20048;-67
2021/03/29 09:24:58;;;;;;;8.05;5.25;;;;;;;22.18;43.95;102377.38;5070716;28;20060;-67
2021/03/29 09:27:32;;;;;;;8.15;4.70;;;;;;;22.06;43.50;102382.81;5071966;28;20036;-67
2021/03/29 09:29:59;;;;;;;5.55;3.80;;;;;;;;;;5073632;28;20056;-67
2021/03/29 09:32:26;;;;;;;6.47;4.28;;;;;;;22.34;43.43;102377.25;5076720;28;20036;-67
2021/03/29 09:34:56;;;;;;;5.90;3.90;;;;;;;22.57;43.06;102386.06;5070437;28;20047;-67
2021/03/29 09:37:24;;;;;;;11.18;5.13;;;;;;;22.58;42.27;102379.75;5070659;28;20135;-67
2021/03/29 09:39:57;;;;;;;9.60;4.50;;;;;;;22.66;42.91;102381.50;5070673;28;20048;-67
2021/03/29 09:42:40;;;;;;;6.93;4.35;;;;;;;22.92;42.46;102373.19;5085437;28;20095;-67
2021/03/29 09:45:09;;;;;;;7.75;3.97;;;;;;;22.94;42.52;102371.41;5067161;28;20044;-67
2021/03/29 09:47:36;;;;;;;8.18;4.90;;;;;;;22.88;42.71;102370.56;5069165;28;20039;-68
2021/03/29 09:50:08;;;;;;;6.82;4.28;;;;;;;22.95;42.87;102377.69;5077593;28;20058;-67
2021/03/29 09:52:39;;;;;;;10.02;4.82;;;;;;;22.81;42.56;102366.13;5080034;28;20036;-67
2021/03/29 09:55:09;;;;;;;7.68;4.70;;;;;;;22.25;42.78;102367.47;5070420;28;20052;-67
2021/03/29 09:57:44;;;;;;;7.47;4.78;;;;;;;22.29;43.07;102362.94;5070810;28;20123;-67
2021/03/29 10:00:14;;;;;;;5.75;3.92;;;;;;;22.40;42.84;102361.06;5089230;28;20068;-67
2021/03/29 10:02:42;;;;;;;5.63;3.83;;;;;;;22.30;42.79;102352.19;5088299;28;20039;-67
2021/03/29 10:05:12;;;;;;;5.47;4.30;;;;;;;22.30;42.77;102360.25;5103312;28;20039;-67
2021/03/29 10:07:51;;;;;;;7.07;4.35;;;;;;;22.24;43.06;102357.59;5089388;28;20443;-67
2021/03/29 10:10:25;;;;;;;8.18;4.88;;;;;;;22.47;42.76;102357.41;5078920;28;20134;-67
2021/03/29 10:13:09;;;;;;;7.32;4.15;;;;;;;22.74;41.97;102367.09;5087148;28;20044;-67
2021/03/29 10:15:37;;;;;;;10.90;6.07;;;;;;;22.78;41.59;102348.19;5087216;28;20036;-67
2021/03/29 10:18:12;;;;;;;6.40;3.70;;;;;;;22.82;41.52;102355.34;5071829;28;20055;-67
2021/03/29 10:20:42;;;;;;;5.70;3.95;;;;;;;22.90;41.64;102363.38;5077931;28;20036;-67
2021/03/29 10:23:27;;;;;;;7.95;4.70;;;;;;;22.88;41.02;102349.91;5086600;28;20037;-67
2021/03/29 10:26:13;;;;;;;9.48;5.60;;;;;;;22.67;41.38;102344.69;5078817;28;20036;-67
2021/03/29 10:28:51;;;;;;;7.38;4.85;;;;;;;22.74;41.56;102345.56;5080963;28;20063;-67
2021/03/29 10:31:18;;;;;;;8.57;5.75;;;;;;;22.89;41.45;102346.31;5088462;28;20545;-67
2021/03/29 10:33:45;;;;;;;9.50;4.78;;;;;;;23.15;40.81;102340.66;5078265;28;20040;-67
2021/03/29 10:36:15;;;;;;;8.18;5.28;;;;;;;23.23;40.50;102341.47;5072383;28;20085;-67
2021/03/29 10:38:42;;;;;;;6.22;3.80;;;;;;;23.10;40.27;102347.91;5071257;28;20051;-67
2021/03/29 10:41:10;;;;;;;7.15;4.18;;;;;;;23.09;40.41;102342.53;5072242;28;20096;-67
2021/03/29 10:43:37;;;;;;;6.78;3.95;;;;;;;23.09;40.23;102350.59;5084928;28;20036;-67
2021/03/29 10:46:05;;;;;;;7.55;4.10;;;;;;;22.91;39.88;102341.78;5086328;28;20044;-67
2021/03/29 10:48:32;;;;;;;5.95;4.22;;;;;;;22.84;40.14;102333.81;5077733;28;20127;-67
2021/03/29 10:51:00;;;;;;;8.30;4.70;;;;;;;22.80;40.41;102326.63;5087638;28;20044;-66
2021/03/29 10:53:28;;;;;;;6.57;3.67;;;;;;;22.72;40.62;102329.38;5096068;28;20119;-67
2021/03/29 10:55:55;;;;;;;9.45;4.47;;;;;;;22.75;40.71;102321.31;5088928;28;20036;-66
2021/03/29 10:58:22;;;;;;;10.70;4.40;;;;;;;22.77;40.37;102319.50;5088777;28;20040;-67
2021/03/29 11:00:50;;;;;;;6.40;4.13;;;;;;;22.81;40.68;102323.03;5088445;28;20415;-67
2021/03/29 11:03:18;;;;;;;7.15;4.68;;;;;;;22.85;40.50;102316.72;5081925;28;20569;-66
2021/03/29 11:05:45;;;;;;;8.88;4.60;;;;;;;22.91;40.71;102320.22;5087894;28;20489;-67
2021/03/29 11:08:12;;;;;;;9.23;5.65;;;;;;;23.07;40.65;102318.28;5087637;28;20028;-67
2021/03/29 11:10:40;;;;;;;10.35;5.35;;;;;;;23.09;40.94;102315.56;5087863;28;20028;-66
2021/03/29 11:13:07;;;;;;;9.52;6.40;;;;;;;23.05;40.40;102312.00;5080720;28;20044;-67
2021/03/29 11:15:34;;;;;;;7.32;4.20;;;;;;;23.04;40.93;102300.31;5077957;28;20195;-66
2021/03/29 11:18:05;;;;;;;10.82;4.20;;;;;;;23.10;40.98;102301.19;5085175;28;20124;-67
2021/03/29 11:20:32;;;;;;;9.50;5.32;;;;;;;23.24;40.94;102292.00;5085198;28;20126;-67
2021/03/29 11:22:59;;;;;;;7.78;5.05;;;;;;;23.47;41.36;102294.47;5082375;28;20036;-66
2021/03/29 11:25:26;;;;;;;5.53;4.25;;;;;;;23.52;41.23;102287.19;5086767;28;20427;-67
2021/03/29 11:27:55;;;;;;;7.03;4.93;;;;;;;23.62;41.48;102287.97;5077468;28;20393;-67
2021/03/29 11:30:22;;;;;;;9.73;6.72;;;;;;;23.90;40.78;102286.63;5081170;28;20047;-67
2021/03/29 11:32:49;;;;;;;9.38;6.88;;;;;;;23.80;41.15;102288.59;5086255;28;20134;-67
2021/03/29 11:35:16;;;;;;;9.27;5.53;;;;;;;24.07;40.47;102279.19;5088078;28;20036;-67
2021/03/29 11:37:45;;;;;;;8.65;5.05;;;;;;;24.37;40.36;102283.22;5106629;28;20119;-67
2021/03/29 11:40:13;;;;;;;7.10;5.40;;;;;;;24.40;40.15;102280.47;5084767;28;20037;-67